createdAt,value
2022-09-02T00:11:59.683Z,53.2
2022-09-02T00:27:09.125Z,53.4
2022-09-02T00:42:18.792Z,53.6
2022-09-02T00:57:30.832Z,53.8
2022-09-02T01:12:40.274Z,54
2022-09-02T01:27:49.440Z,54.3
2022-09-02T01:42:58.634Z,54.5
2022-09-02T01:58:07.786Z,54.6
2022-09-02T02:13:17.054Z,54.4
2022-09-02T02:28:29.152Z,55.1
2022-09-02T02:43:38.490Z,55.5
2022-09-02T02:58:47.962Z,55.7
2022-09-02T03:13:57.305Z,56
2022-09-02T03:29:06.522Z,56.3
2022-09-02T03:44:15.636Z,56.4
2022-09-02T03:59:24.831Z,56.5
2022-09-02T04:14:34.109Z,56.6
2022-09-02T04:29:43.183Z,56.7
2022-09-02T04:44:52.787Z,56.9
2022-09-02T05:01:12.501Z,58.7
2022-09-02T05:16:23.315Z,58.5
2022-09-02T05:31:33.432Z,58.3
2022-09-02T05:46:49.459Z,58.2
2022-09-02T06:01:59.105Z,58.1
2022-09-02T06:17:08.687Z,57.8
2022-09-02T06:32:18.221Z,57.6
2022-09-02T06:47:28.274Z,57.5
2022-09-02T07:02:37.682Z,57.3
2022-09-02T07:17:47.387Z,57.2
2022-09-02T07:32:56.861Z,57.1
2022-09-02T07:48:06.302Z,56.9
2022-09-02T08:03:15.901Z,56.7
2022-09-02T08:18:25.432Z,56.5
2022-09-02T08:33:34.869Z,56.2
2022-09-02T08:48:44.489Z,55.9
2022-09-02T09:03:53.878Z,55.6
2022-09-02T09:19:09.326Z,55.3
2022-09-02T09:34:19.048Z,55
2022-09-02T09:49:28.599Z,54.7
2022-09-02T10:04:45.576Z,54.3
2022-09-02T10:19:55.108Z,54
2022-09-02T10:35:07.608Z,53.5
2022-09-02T10:50:17.099Z,53.1
2022-09-02T11:05:29.110Z,52.7
2022-09-02T11:20:39.311Z,52.2
2022-09-02T11:35:48.948Z,51.7
2022-09-02T11:51:01.261Z,51.2
2022-09-02T12:06:11.923Z,49
2022-09-02T12:21:23.885Z,47.8
2022-09-02T12:36:34.432Z,47
2022-09-02T12:51:47.503Z,46.7
2022-09-02T13:06:56.495Z,47.1
2022-09-02T13:22:07.812Z,46.1
2022-09-02T13:37:19.978Z,46.8
2022-09-02T13:54:23.757Z,47.6
2022-09-02T14:09:33.279Z,48
2022-09-02T14:24:42.412Z,47.7
2022-09-02T14:39:52.834Z,47.1
2022-09-02T14:55:02.770Z,46.7
2022-09-02T15:10:12.473Z,46.7
2022-09-02T15:25:21.625Z,47.1
2022-09-02T15:40:30.796Z,47.3
2022-09-02T15:55:39.753Z,47.3
2022-09-02T16:10:49.386Z,47.5
2022-09-02T16:26:01.150Z,47.7
2022-09-02T16:41:11.028Z,47.7
2022-09-02T16:56:20.314Z,47.7
2022-09-02T17:11:31.351Z,47.6
2022-09-02T17:26:40.766Z,47.8
2022-09-02T17:41:50.320Z,47.9
2022-09-02T17:56:59.751Z,48
2022-09-02T18:12:09.891Z,48.1
2022-09-02T18:27:19.178Z,48.1
2022-09-02T18:42:30.835Z,48.1
2022-09-02T18:57:40.465Z,48.3
2022-09-02T19:12:52.697Z,48.3
2022-09-02T19:28:05.175Z,48.4
2022-09-02T19:43:14.607Z,48.5
2022-09-02T19:58:24.764Z,48.6
2022-09-02T20:13:42.148Z,48.8
2022-09-02T20:28:51.456Z,48.8
2022-09-02T20:44:07.650Z,48.9
2022-09-02T20:59:19.636Z,49.6
2022-09-02T21:14:30.808Z,48.9
2022-09-02T21:29:39.997Z,49.1
2022-09-02T21:44:49.155Z,49.2
2022-09-02T21:59:58.520Z,49.4
2022-09-02T22:15:07.538Z,49.5
2022-09-02T22:30:16.665Z,49.6
2022-09-02T22:45:29.302Z,49.8
2022-09-02T23:00:38.928Z,50
2022-09-02T23:15:48.552Z,50.2
2022-09-02T23:30:58.409Z,50.4
2022-09-02T23:46:07.945Z,50.5
